Time;durP1;ratioP1;P1;durP2;ratioP2;P2;SDS_P1;SDS_P2;PMS_P1;PMS_P2;Temp;Humidity;BMP_temperature;BMP_pressure;BME280_temperature;BME280_humidity;BME280_pressure;Samples;Min_cycle;Max_cycle;Signal;HPM_P1;HPM_P2
2021/12/06 00:01:24;;;;;;;97.30;22.70;;;0.50;99.90;;;;;;5091456;28;20634;-51
2021/12/06 00:03:52;;;;;;;144.10;23.53;;;0.50;99.90;;;;;;5091951;28;20169;-51
2021/12/06 00:06:20;;;;;;;105.10;22.10;;;0.50;99.90;;;;;;5093236;28;20169;-48
2021/12/06 00:08:46;;;;;;;179.53;24.53;;;0.60;99.90;;;;;;5074197;28;20189;-55
2021/12/06 00:11:14;;;;;;;143.20;23.53;;;0.50;99.90;;;;;;5093109;28;20612;-54
2021/12/06 00:13:42;;;;;;;155.20;23.03;;;0.50;99.90;;;;;;5092852;28;20326;-71
2021/12/06 00:16:13;;;;;;;110.80;24.50;;;0.40;99.90;;;;;;5093036;28;20190;-51
2021/12/06 00:18:39;;;;;;;154.53;23.90;;;0.50;99.90;;;;;;5093003;28;20240;-48
2021/12/06 00:21:07;;;;;;;91.13;21.07;;;0.50;99.90;;;;;;5092965;28;20712;-51
2021/12/06 00:23:32;;;;;;;108.50;20.87;;;0.50;99.90;;;;;;5092983;28;20210;-52
2021/12/06 00:25:59;;;;;;;127.73;22.87;;;0.50;99.90;;;;;;5092426;28;20182;-52
2021/12/06 00:28:26;;;;;;;127.23;23.13;;;0.60;99.90;;;;;;5092786;28;20537;-53
2021/12/06 00:30:52;;;;;;;146.13;22.87;;;0.50;99.90;;;;;;5092768;28;20201;-53
2021/12/06 00:33:18;;;;;;;109.33;24.47;;;0.50;99.90;;;;;;5092843;28;20182;-54
2021/12/06 00:35:44;;;;;;;113.17;24.87;;;0.50;99.90;;;;;;5092336;28;20277;-53
2021/12/06 00:38:10;;;;;;;172.60;25.67;;;0.50;99.90;;;;;;5092545;28;20213;-52
2021/12/06 00:40:43;;;;;;;185.40;27.93;;;0.50;99.90;;;;;;5092368;28;20187;-50
2021/12/06 00:43:09;;;;;;;451.90;52.37;;;0.50;99.90;;;;;;5092794;28;20253;-52
2021/12/06 00:45:36;;;;;;;777.53;82.03;;;0.60;99.90;;;;;;5092420;28;20260;-52
2021/12/06 00:48:02;;;;;;;150.97;28.50;;;0.70;99.90;;;;;;5092269;28;20255;-54
2021/12/06 00:50:32;;;;;;;137.50;28.07;;;1.00;99.90;;;;;;5092430;28;20178;-53
2021/12/06 00:52:58;;;;;;;162.53;26.80;;;1.00;99.90;;;;;;5092107;28;20185;-56
2021/12/06 00:55:25;;;;;;;136.23;26.13;;;0.80;99.90;;;;;;5092570;28;20187;-55
2021/12/06 00:57:53;;;;;;;124.03;27.07;;;0.70;99.90;;;;;;5092116;28;20666;-52
2021/12/06 01:00:42;;;;;;;148.63;25.73;;;0.70;99.90;;;;;;5092061;28;20239;-55
2021/12/06 01:03:12;;;;;;;133.43;24.53;;;0.60;99.90;;;;;;5092057;28;20186;-53
2021/12/06 01:05:38;;;;;;;147.77;27.20;;;0.60;99.90;;;;;;5092029;28;20179;-53
2021/12/06 01:08:05;;;;;;;151.57;26.43;;;0.60;99.90;;;;;;5091955;28;20177;-52
2021/12/06 01:10:32;;;;;;;137.17;25.73;;;0.60;99.90;;;;;;5091969;28;20181;-51
2021/12/06 01:12:59;;;;;;;148.03;27.13;;;0.50;99.90;;;;;;5091890;28;20225;-52
2021/12/06 01:15:26;;;;;;;130.63;25.40;;;0.50;99.90;;;;;;5091627;28;20177;-54
2021/12/06 01:17:54;;;;;;;165.33;26.80;;;0.50;99.90;;;;;;5073418;28;20217;-53
2021/12/06 01:20:24;;;;;;;156.40;26.53;;;0.40;99.90;;;;;;5091891;28;20566;-54
2021/12/06 01:22:58;;;;;;;108.33;25.10;;;0.40;99.90;;;;;;5091599;28;20196;-54
2021/12/06 01:41:14;;;;;;;125.20;24.47;;;0.40;99.90;;;;;;5092039;28;20201;-52
2021/12/06 01:44:03;;;;;;;149.07;24.03;;;0.40;99.90;;;;;;5091922;28;20191;-52
2021/12/06 01:46:32;;;;;;;163.27;26.37;;;0.40;99.90;;;;;;5091507;28;20178;-48
2021/12/06 01:48:57;;;;;;;157.37;26.17;;;0.40;99.90;;;;;;5091467;28;20171;-53
2021/12/06 01:51:24;;;;;;;203.17;28.63;;;0.40;99.90;;;;;;5091591;28;20228;-52
2021/12/06 01:53:49;;;;;;;139.67;25.87;;;0.40;99.90;;;;;;5091480;28;20181;-50
2021/12/06 01:56:15;;;;;;;187.60;26.60;;;0.30;99.90;;;;;;5091757;28;20182;-57
2021/12/06 01:58:43;;;;;;;138.87;25.33;;;0.30;99.90;;;;;;5091733;28;20205;-52
2021/12/06 02:01:10;;;;;;;122.73;24.27;;;0.40;99.90;;;;;;5091034;28;20193;-52
2021/12/06 02:03:36;;;;;;;155.60;26.17;;;0.40;99.90;;;;;;5091536;28;20197;-56
2021/12/06 02:06:02;;;;;;;148.53;24.77;;;0.40;99.90;;;;;;5091054;28;20189;-50
2021/12/06 02:08:28;;;;;;;129.70;24.43;;;0.40;99.90;;;;;;5091526;28;20532;-48
2021/12/06 02:11:00;;;;;;;153.90;27.67;;;0.40;99.90;;;;;;5091015;28;20248;-52
2021/12/06 02:13:30;;;;;;;171.30;27.17;;;0.40;99.90;;;;;;5082772;28;20230;-52
2021/12/06 02:15:56;;;;;;;140.20;25.33;;;0.40;99.90;;;;;;5090929;28;20680;-54
2021/12/06 02:21:37;;;;;;;217.33;29.43;;;0.40;99.90;;;;;;5091354;28;20192;-52
2021/12/06 02:24:07;;;;;;;146.73;26.10;;;0.40;99.90;;;;;;5089647;28;20185;-52
2021/12/06 02:26:33;;;;;;;214.03;28.57;;;0.50;99.90;;;;;;5092122;28;20251;-51
2021/12/06 02:28:59;;;;;;;131.20;23.80;;;0.40;99.90;;;;;;5094993;28;20638;-54
2021/12/06 02:31:26;;;;;;;121.73;25.53;;;0.50;99.90;;;;;;5095043;28;20185;-51
2021/12/06 02:33:54;;;;;;;166.97;28.20;;;0.50;99.90;;;;;;5094694;28;20608;-55
2021/12/06 02:36:21;;;;;;;130.70;26.87;;;0.50;99.90;;;;;;5094873;28;20621;-52
2021/12/06 02:38:47;;;;;;;134.50;25.30;;;0.50;99.90;;;;;;5093551;28;20252;-55
2021/12/06 02:41:15;;;;;;;144.07;27.53;;;0.50;99.90;;;;;;5093265;28;20190;-52
2021/12/06 02:43:41;;;;;;;131.23;27.07;;;0.50;99.90;;;;;;5095039;28;20179;-51
2021/12/06 02:46:09;;;;;;;170.93;28.27;;;0.50;99.90;;;;;;5094538;28;20208;-55
2021/12/06 02:48:34;;;;;;;126.60;24.90;;;0.50;99.90;;;;;;5094690;28;20175;-52
2021/12/06 02:51:04;;;;;;;101.70;23.30;;;0.50;99.90;;;;;;5094448;28;20572;-52
2021/12/06 02:53:32;;;;;;;170.43;27.30;;;0.50;99.90;;;;;;5093309;28;20281;-52
2021/12/06 02:56:00;;;;;;;108.70;22.87;;;0.50;99.90;;;;;;5094132;28;20647;-52
2021/12/06 03:01:09;;;;;;;116.10;25.03;;;0.50;99.90;;;;;;5094128;28;20192;-48
2021/12/06 03:03:36;;;;;;;145.30;27.67;;;0.50;99.90;;;;;;5094281;28;20626;-50
2021/12/06 03:06:02;;;;;;;120.80;26.13;;;0.50;99.90;;;;;;5093961;28;20196;-52
2021/12/06 03:08:41;;;;;;;131.40;27.10;;;0.50;99.90;;;;;;5094241;28;20274;-50
2021/12/06 03:11:17;;;;;;;146.57;25.00;;;0.50;99.90;;;;;;5094066;28;20302;-51
2021/12/06 03:13:44;;;;;;;139.97;25.73;;;0.50;99.90;;;;;;5094050;28;20279;-50
2021/12/06 03:16:10;;;;;;;113.93;24.80;;;0.50;99.90;;;;;;5093735;28;20204;-49
2021/12/06 03:18:35;;;;;;;199.77;29.30;;;0.50;99.90;;;;;;5093802;28;20252;-51
2021/12/06 03:21:02;;;;;;;153.47;27.67;;;0.50;99.90;;;;;;5093443;28;20186;-49
2021/12/06 03:23:27;;;;;;;119.47;27.13;;;0.40;99.90;;;;;;5093940;28;20178;-48
2021/12/06 03:25:53;;;;;;;139.57;27.70;;;0.40;99.90;;;;;;5093959;28;20192;-50
2021/12/06 03:28:19;;;;;;;143.07;26.80;;;0.50;99.90;;;;;;5093680;28;20193;-50
2021/12/06 03:30:45;;;;;;;113.57;24.83;;;0.40;99.90;;;;;;5093983;28;20234;-53
2021/12/06 03:33:11;;;;;;;109.10;26.17;;;0.40;99.90;;;;;;5093066;28;20613;-47
2021/12/06 03:35:37;;;;;;;118.63;25.73;;;0.40;99.90;;;;;;5093661;28;20256;-50
2021/12/06 03:38:03;;;;;;;106.53;25.90;;;0.40;99.90;;;;;;5075146;28;20214;-48
2021/12/06 03:40:29;;;;;;;123.20;26.17;;;0.40;99.90;;;;;;5094056;28;20322;-48
2021/12/06 03:42:55;;;;;;;109.33;25.13;;;0.40;99.90;;;;;;5093268;28;20181;-51
2021/12/06 03:45:20;;;;;;;115.37;25.87;;;0.40;99.90;;;;;;5093555;28;20637;-52
2021/12/06 03:47:46;;;;;;;123.57;26.00;;;0.30;99.90;;;;;;5075158;28;20189;-53
2021/12/06 03:50:13;;;;;;;116.90;26.60;;;0.30;99.90;;;;;;5092918;28;20189;-51
2021/12/06 03:52:40;;;;;;;125.20;29.97;;;0.40;99.90;;;;;;5093154;28;20181;-52
2021/12/06 03:55:07;;;;;;;118.03;28.07;;;0.40;99.90;;;;;;5093100;28;20241;-53
2021/12/06 03:57:33;;;;;;;128.80;26.63;;;0.40;99.90;;;;;;5074822;28;20646;-52
2021/12/06 03:59:59;;;;;;;104.87;25.97;;;0.30;99.90;;;;;;5092793;28;20182;-52
2021/12/06 04:02:29;;;;;;;117.33;28.07;;;0.30;99.90;;;;;;5093116;28;20196;-50
2021/12/06 04:04:55;;;;;;;116.03;26.67;;;0.40;99.90;;;;;;5092586;28;20251;-56
2021/12/06 04:07:22;;;;;;;122.30;26.57;;;0.40;99.90;;;;;;5074873;28;20181;-53
2021/12/06 04:09:49;;;;;;;141.67;27.93;;;0.40;99.90;;;;;;5093111;28;20259;-53
2021/12/06 04:12:15;;;;;;;116.67;26.03;;;0.40;99.90;;;;;;5092415;28;20253;-52
2021/12/06 04:14:42;;;;;;;131.33;27.63;;;0.40;99.90;;;;;;5092845;28;20189;-50
2021/12/06 04:17:09;;;;;;;124.60;26.33;;;0.40;99.90;;;;;;5092299;28;20599;-52
2021/12/06 04:19:35;;;;;;;130.70;29.50;;;0.40;99.90;;;;;;5092614;28;20182;-52
2021/12/06 04:22:02;;;;;;;193.33;33.70;;;0.40;99.90;;;;;;5092248;28;20281;-54
2021/12/06 04:24:28;;;;;;;146.33;35.07;;;0.40;99.90;;;;;;5092628;28;20176;-51
2021/12/06 04:26:54;;;;;;;194.90;46.93;;;0.60;99.90;;;;;;5092443;28;20196;-67
2021/12/06 04:29:20;;;;;;;119.57;27.57;;;0.70;99.90;;;;;;5092386;28;20187;-50
2021/12/06 04:31:53;;;;;;;118.70;26.27;;;0.90;99.90;;;;;;5057181;28;20198;-51
2021/12/06 04:34:20;;;;;;;109.77;26.27;;;0.90;99.90;;;;;;5091895;28;20175;-48
2021/12/06 04:36:46;;;;;;;98.10;23.83;;;0.80;99.90;;;;;;5092489;28;20180;-55
2021/12/06 04:39:15;;;;;;;101.63;25.37;;;0.80;99.90;;;;;;5091950;28;20664;-50
2021/12/06 04:41:41;;;;;;;101.03;25.27;;;0.90;99.90;;;;;;5092565;28;20634;-55
2021/12/06 04:44:08;;;;;;;111.87;27.73;;;0.90;99.90;;;;;;5091779;28;20655;-47
2021/12/06 04:46:34;;;;;;;108.50;26.10;;;0.90;99.90;;;;;;5092192;28;20179;-51
2021/12/06 04:49:00;;;;;;;105.93;25.23;;;1.00;99.90;;;;;;5091511;28;20274;-49
2021/12/06 04:51:26;;;;;;;116.23;27.03;;;0.90;99.90;;;;;;5091717;28;20190;-50
2021/12/06 04:53:52;;;;;;;116.20;26.70;;;0.90;99.90;;;;;;5091722;28;20281;-50
2021/12/06 04:56:29;;;;;;;102.43;23.13;;;0.80;99.90;;;;;;5073464;28;20233;-51
2021/12/06 04:59:17;;;;;;;135.87;28.40;;;0.70;99.90;;;;;;5073127;28;20207;-56
2021/12/06 05:01:44;;;;;;;106.20;25.57;;;0.70;99.90;;;;;;5070754;28;20195;-50
2021/12/06 05:04:15;;;;;;;110.73;27.67;;;0.70;99.90;;;;;;5071277;28;20178;-51
2021/12/06 05:06:44;;;;;;;132.30;25.83;;;0.70;99.90;;;;;;5071196;28;20498;-49
2021/12/06 05:09:21;;;;;;;136.63;27.60;;;0.70;99.90;;;;;;5053091;28;20262;-49
2021/12/06 05:11:48;;;;;;;117.23;26.50;;;0.60;99.90;;;;;;5071128;28;20179;-51
2021/12/06 05:14:14;;;;;;;95.57;24.57;;;0.60;99.90;;;;;;5070598;28;20231;-51
2021/12/06 05:16:40;;;;;;;116.20;25.90;;;0.60;99.90;;;;;;5070823;28;20222;-56
2021/12/06 05:19:06;;;;;;;91.97;23.83;;;0.60;99.90;;;;;;5070984;28;20215;-51
2021/12/06 05:21:36;;;;;;;105.60;23.87;;;0.60;99.90;;;;;;5053143;28;20263;-52
2021/12/06 05:24:02;;;;;;;100.27;24.30;;;0.60;99.90;;;;;;5070436;28;20634;-52
2021/12/06 05:26:28;;;;;;;88.23;22.70;;;0.60;99.90;;;;;;5052865;28;20185;-54
2021/12/06 05:28:57;;;;;;;87.00;20.80;;;0.60;99.90;;;;;;5071069;28;20186;-50
2021/12/06 05:31:23;;;;;;;93.37;24.13;;;0.60;99.90;;;;;;5070523;28;20181;-55
2021/12/06 05:33:58;;;;;;;91.70;22.47;;;0.60;99.90;;;;;;5035601;28;20646;-52
2021/12/06 05:36:24;;;;;;;104.60;23.77;;;0.70;99.90;;;;;;5052174;28;20193;-52
2021/12/06 05:38:51;;;;;;;95.30;23.73;;;0.70;99.90;;;;;;5052646;28;20217;-51
2021/12/06 05:41:17;;;;;;;93.20;21.77;;;0.70;99.90;;;;;;5070333;28;20191;-54
2021/12/06 05:43:43;;;;;;;104.50;24.77;;;0.70;99.90;;;;;;5070475;28;20269;-50
2021/12/06 05:46:09;;;;;;;102.40;23.53;;;0.70;99.90;;;;;;5070199;28;20183;-58
2021/12/06 05:48:36;;;;;;;109.33;27.10;;;0.70;99.90;;;;;;5069927;28;20206;-53
2021/12/06 05:51:02;;;;;;;94.07;24.63;;;0.80;99.90;;;;;;5069156;28;20237;-52
2021/12/06 05:53:28;;;;;;;101.50;24.20;;;0.70;99.90;;;;;;5070185;28;20179;-51
2021/12/06 05:55:54;;;;;;;122.73;26.90;;;0.80;99.90;;;;;;5070526;28;20271;-50
2021/12/06 05:58:26;;;;;;;117.13;25.13;;;0.80;99.90;;;;;;5070201;28;20212;-54
2021/12/06 06:00:54;;;;;;;108.23;25.33;;;0.70;99.90;;;;;;5085287;28;20654;-53
2021/12/06 06:03:20;;;;;;;110.70;24.50;;;0.70;99.90;;;;;;5075366;28;21024;-57
2021/12/06 06:05:46;;;;;;;96.57;24.90;;;0.80;99.90;;;;;;5075887;28;20182;-52
2021/12/06 06:08:12;;;;;;;112.90;27.53;;;0.80;99.90;;;;;;5093501;28;20368;-54
2021/12/06 06:10:38;;;;;;;113.97;28.23;;;0.90;99.90;;;;;;5093878;28;20186;-53
2021/12/06 06:13:06;;;;;;;112.20;27.63;;;0.90;99.90;;;;;;5093750;28;20665;-55
2021/12/06 06:15:33;;;;;;;107.60;25.53;;;0.80;99.90;;;;;;5094123;28;20258;-53
2021/12/06 06:18:00;;;;;;;110.43;26.00;;;0.80;99.90;;;;;;5093373;28;20211;-48
2021/12/06 06:20:31;;;;;;;102.97;25.20;;;0.90;99.90;;;;;;5093806;28;20275;-49
2021/12/06 06:22:57;;;;;;;114.27;26.03;;;0.80;99.90;;;;;;5093805;28;20285;-51
2021/12/06 06:25:23;;;;;;;116.97;26.63;;;0.80;99.90;;;;;;5076000;28;20265;-53
2021/12/06 06:27:49;;;;;;;126.17;28.23;;;0.80;99.90;;;;;;5093701;28;20665;-53
2021/12/06 06:30:15;;;;;;;140.83;28.63;;;0.90;99.90;;;;;;5075402;28;20260;-53
2021/12/06 06:32:42;;;;;;;119.67;27.97;;;0.90;99.90;;;;;;5093684;28;20179;-57
2021/12/06 06:35:08;;;;;;;103.97;27.83;;;1.00;99.90;;;;;;5075686;28;20307;-51
2021/12/06 06:37:34;;;;;;;107.57;26.67;;;1.00;99.90;;;;;;5094076;28;20210;-52
2021/12/06 06:40:00;;;;;;;112.03;27.17;;;1.10;99.90;;;;;;5093493;28;20194;-57
2021/12/06 06:42:27;;;;;;;129.97;30.00;;;1.10;99.90;;;;;;5092378;28;20299;-53
2021/12/06 06:44:56;;;;;;;118.90;28.67;;;1.10;99.90;;;;;;5092596;28;20174;-53
2021/12/06 06:47:22;;;;;;;117.57;28.40;;;1.10;99.90;;;;;;5092895;28;20192;-54
2021/12/06 06:49:49;;;;;;;113.27;26.23;;;1.10;99.90;;;;;;5093537;28;20609;-50
2021/12/06 06:52:16;;;;;;;129.10;27.87;;;1.20;99.90;;;;;;5093074;28;20175;-52
2021/12/06 06:54:42;;;;;;;121.10;28.80;;;1.10;99.90;;;;;;5075363;28;20191;-59
2021/12/06 06:57:08;;;;;;;130.97;28.13;;;1.10;99.90;;;;;;5092970;28;20222;-52
2021/12/06 06:59:34;;;;;;;97.37;24.07;;;1.10;99.90;;;;;;5093737;28;20202;-59
2021/12/06 07:02:00;;;;;;;109.20;27.03;;;1.20;99.90;;;;;;5074677;28;20544;-53
2021/12/06 07:04:26;;;;;;;106.87;25.93;;;1.20;99.90;;;;;;5093155;28;20174;-54
2021/12/06 07:06:52;;;;;;;119.80;24.47;;;1.10;99.90;;;;;;5093390;28;20682;-52
2021/12/06 07:09:19;;;;;;;105.47;26.53;;;1.10;99.90;;;;;;5074625;28;20214;-52
2021/12/06 07:11:46;;;;;;;111.50;24.83;;;1.20;99.90;;;;;;5093257;28;20190;-54
2021/12/06 07:14:15;;;;;;;123.77;26.13;;;1.10;99.90;;;;;;5092290;28;20698;-59
2021/12/06 07:16:42;;;;;;;111.90;24.87;;;1.20;99.90;;;;;;5093744;28;20264;-54
2021/12/06 07:19:08;;;;;;;126.77;28.60;;;1.20;99.90;;;;;;5092245;28;20264;-55
2021/12/06 07:21:35;;;;;;;117.23;24.60;;;1.20;99.90;;;;;;5092701;28;20191;-55
2021/12/06 07:24:01;;;;;;;97.03;24.23;;;1.20;99.90;;;;;;5092768;28;20313;-52
2021/12/06 07:26:27;;;;;;;108.57;23.70;;;1.30;99.90;;;;;;5083865;28;20186;-53
2021/12/06 07:28:55;;;;;;;106.83;25.30;;;1.20;99.90;;;;;;5082909;28;20206;-55
2021/12/06 07:31:22;;;;;;;117.43;25.63;;;1.20;99.90;;;;;;5092836;28;20187;-52
2021/12/06 07:33:50;;;;;;;103.70;24.07;;;1.20;99.90;;;;;;5092712;28;20179;-54
2021/12/06 07:36:20;;;;;;;110.17;26.47;;;1.20;99.90;;;;;;5091608;28;20570;-53
2021/12/06 07:38:47;;;;;;;102.17;24.03;;;1.10;99.90;;;;;;5091770;28;20599;-54
2021/12/06 07:41:16;;;;;;;93.57;24.10;;;1.20;99.90;;;;;;5090496;28;20192;-55
2021/12/06 07:43:42;;;;;;;94.73;24.90;;;1.30;99.90;;;;;;5091692;28;20300;-55
2021/12/06 07:46:09;;;;;;;106.77;24.97;;;1.30;99.90;;;;;;5091153;28;20262;-54
2021/12/06 07:48:35;;;;;;;111.57;26.97;;;1.40;99.90;;;;;;5091566;28;20183;-54
2021/12/06 07:51:01;;;;;;;108.23;24.40;;;1.40;99.90;;;;;;5091376;28;20185;-57
2021/12/06 07:53:29;;;;;;;122.33;31.50;;;1.40;99.90;;;;;;5089564;28;20275;-55
2021/12/06 07:55:55;;;;;;;121.27;32.23;;;1.30;99.90;;;;;;5071785;28;20191;-57
2021/12/06 07:58:21;;;;;;;141.93;35.70;;;1.40;99.90;;;;;;5071316;28;20214;-60
2021/12/06 08:00:51;;;;;;;153.37;45.90;;;1.30;99.90;;;;;;5090016;28;20282;-55
2021/12/06 08:03:20;;;;;;;113.03;29.90;;;1.30;99.90;;;;;;5089810;28;20177;-60
2021/12/06 08:05:47;;;;;;;113.90;30.10;;;1.30;99.90;;;;;;5091155;28;20237;-55
2021/12/06 08:08:25;;;;;;;111.70;28.33;;;1.30;99.90;;;;;;5092057;28;20187;-52
2021/12/06 08:10:53;;;;;;;94.37;25.47;;;1.40;99.90;;;;;;5091238;28;20180;-57
2021/12/06 08:13:23;;;;;;;109.90;28.10;;;1.40;99.90;;;;;;5091585;28;20605;-59
2021/12/06 08:15:51;;;;;;;101.60;25.33;;;1.30;99.90;;;;;;5091784;28;20183;-57
2021/12/06 08:18:17;;;;;;;99.10;24.93;;;1.30;99.90;;;;;;5091493;28;20236;-55
2021/12/06 08:20:54;;;;;;;88.60;23.30;;;1.40;99.90;;;;;;5090180;28;20808;-58
2021/12/06 08:23:20;;;;;;;94.80;23.50;;;1.30;99.90;;;;;;5091549;28;20203;-59
2021/12/06 08:25:47;;;;;;;98.03;25.23;;;1.40;99.90;;;;;;5072273;28;20544;-50
2021/12/06 08:28:15;;;;;;;96.97;24.13;;;1.80;99.90;;;;;;5073472;28;20271;-59
2021/12/06 08:30:42;;;;;;;105.50;27.93;;;2.00;99.90;;;;;;5073229;28;20567;-54
2021/12/06 08:33:08;;;;;;;108.60;27.37;;;2.00;99.90;;;;;;5091398;28;20572;-53
2021/12/06 08:35:38;;;;;;;96.13;24.10;;;1.90;99.90;;;;;;5091482;28;20184;-53
2021/12/06 08:38:05;;;;;;;102.33;25.23;;;1.90;99.90;;;;;;5091319;28;20249;-51
2021/12/06 08:40:31;;;;;;;102.03;25.53;;;1.90;99.90;;;;;;5090868;28;20535;-55
2021/12/06 08:42:56;;;;;;;102.77;25.20;;;1.70;99.90;;;;;;5091406;28;20635;-53
2021/12/06 08:45:23;;;;;;;94.73;24.10;;;1.80;99.90;;;;;;5090436;28;20204;-54
2021/12/06 08:47:49;;;;;;;94.70;23.60;;;1.80;99.90;;;;;;5072731;28;20187;-56
2021/12/06 08:50:19;;;;;;;95.40;23.90;;;1.90;99.90;;;;;;5090341;28;20279;-55
2021/12/06 08:52:46;;;;;;;106.77;22.20;;;2.00;99.90;;;;;;5091207;28;20187;-60
2021/12/06 08:55:12;;;;;;;93.77;22.73;;;2.00;99.90;;;;;;5090300;28;20199;-57
2021/12/06 08:57:38;;;;;;;95.57;23.00;;;2.00;99.90;;;;;;5091218;28;20212;-55
2021/12/06 09:00:12;;;;;;;92.37;24.53;;;2.00;99.90;;;;;;5072634;28;20185;-51
2021/12/06 09:02:38;;;;;;;100.40;23.90;;;2.00;99.90;;;;;;5090979;28;20245;-55
2021/12/06 09:05:06;;;;;;;119.23;25.03;;;2.00;99.90;;;;;;5091307;28;20690;-51
2021/12/06 09:07:32;;;;;;;98.30;24.47;;;2.00;99.90;;;;;;5090871;28;20545;-54
2021/12/06 09:09:59;;;;;;;117.30;25.37;;;2.00;99.90;;;;;;5090883;28;20191;-53
2021/12/06 09:12:28;;;;;;;104.93;25.47;;;2.10;99.90;;;;;;5090081;28;20199;-52
2021/12/06 09:14:56;;;;;;;101.10;26.13;;;2.00;99.90;;;;;;5091201;28;20667;-59
2021/12/06 09:17:23;;;;;;;109.17;24.83;;;1.90;99.90;;;;;;5055174;28;20216;-58
2021/12/06 09:19:49;;;;;;;93.83;23.43;;;1.90;99.90;;;;;;5072401;28;20203;-50
2021/12/06 09:22:16;;;;;;;96.53;22.67;;;2.00;99.90;;;;;;5090135;28;20180;-62
2021/12/06 09:24:42;;;;;;;108.57;26.13;;;2.10;99.90;;;;;;5090736;28;20807;-54
2021/12/06 09:27:08;;;;;;;91.40;24.30;;;2.10;99.90;;;;;;5072035;28;20330;-56
2021/12/06 09:29:36;;;;;;;98.50;23.57;;;2.00;99.90;;;;;;5090588;28;20226;-63
2021/12/06 09:32:05;;;;;;;93.27;26.13;;;2.00;99.90;;;;;;5090834;28;20181;-62
2021/12/06 09:34:31;;;;;;;112.87;22.73;;;2.00;99.90;;;;;;5090202;28;20184;-59
2021/12/06 09:36:58;;;;;;;112.67;25.67;;;1.90;99.90;;;;;;5094067;28;20203;-64
2021/12/06 09:39:24;;;;;;;100.10;24.57;;;2.00;99.90;;;;;;5095070;28;20600;-62
2021/12/06 09:41:51;;;;;;;83.13;21.57;;;2.00;99.90;;;;;;5094072;28;20268;-64
2021/12/06 09:44:17;;;;;;;101.40;24.43;;;1.80;99.90;;;;;;5094436;28;20199;-59
2021/12/06 09:46:43;;;;;;;104.50;25.50;;;1.70;99.90;;;;;;5094844;28;20237;-62
2021/12/06 09:49:16;;;;;;;92.67;23.20;;;1.90;99.90;;;;;;5095180;28;20184;-56
2021/12/06 09:51:51;;;;;;;112.90;28.37;;;2.00;99.90;;;;;;5076352;28;20268;-53
2021/12/06 09:54:26;;;;;;;105.43;25.97;;;2.10;99.90;;;;;;5094567;28;20183;-59
2021/12/06 09:56:53;;;;;;;92.37;22.93;;;2.20;99.90;;;;;;5094085;28;20241;-55
2021/12/06 09:59:21;;;;;;;109.73;26.53;;;2.20;99.90;;;;;;5094129;28;20630;-59
2021/12/06 10:01:52;;;;;;;104.67;27.10;;;2.40;99.90;;;;;;5094128;28;20229;-58
2021/12/06 10:04:23;;;;;;;99.77;26.23;;;2.30;99.90;;;;;;5093649;28;20232;-58
2021/12/06 10:06:51;;;;;;;97.20;25.67;;;2.20;99.90;;;;;;5094168;28;20207;-59
2021/12/06 10:09:19;;;;;;;81.63;20.70;;;2.20;99.90;;;;;;5093494;28;20316;-59
2021/12/06 10:11:46;;;;;;;90.60;24.40;;;2.10;99.90;;;;;;5093316;28;20177;-62
2021/12/06 10:14:12;;;;;;;555.57;197.83;;;2.10;99.90;;;;;;5093534;28;20226;-64
2021/12/06 10:16:39;;;;;;;84.07;25.50;;;2.20;99.90;;;;;;5093815;28;20183;-60
2021/12/06 10:19:06;;;;;;;81.87;22.30;;;2.30;99.90;;;;;;5093736;28;20305;-63
2021/12/06 10:21:33;;;;;;;69.07;20.17;;;2.40;99.90;;;;;;5093413;28;20188;-59
2021/12/06 10:24:00;;;;;;;78.27;21.20;;;2.30;99.90;;;;;;5093894;28;20208;-64
2021/12/06 10:26:30;;;;;;;71.87;20.63;;;2.20;99.90;;;;;;5093575;28;20195;-56
2021/12/06 10:29:03;;;;;;;82.57;22.83;;;2.20;99.90;;;;;;5093720;28;20188;-63
2021/12/06 10:31:32;;;;;;;73.70;23.27;;;2.20;99.90;;;;;;5093261;28;20181;-57
2021/12/06 10:33:59;;;;;;;64.27;18.87;;;2.20;99.90;;;;;;5093826;28;20173;-57
2021/12/06 10:36:27;;;;;;;67.47;19.17;;;2.30;99.90;;;;;;5093333;28;20663;-65
2021/12/06 10:39:03;;;;;;;65.30;19.20;;;2.30;99.90;;;;;;5093759;28;20204;-58
2021/12/06 10:41:32;;;;;;;61.03;18.00;;;2.30;99.90;;;;;;5074366;28;20195;-61
2021/12/06 10:44:04;;;;;;;73.03;19.10;;;2.40;99.90;;;;;;5075526;28;20185;-63
2021/12/06 10:46:33;;;;;;;61.70;17.80;;;2.40;99.90;;;;;;5093109;28;20191;-61
2021/12/06 10:49:03;;;;;;;87.37;25.00;;;2.40;99.90;;;;;;5092597;28;20193;-62
2021/12/06 10:51:30;;;;;;;71.90;23.13;;;2.40;99.90;;;;;;5093028;28;20188;-59
2021/12/06 10:54:06;;;;;;;63.80;19.33;;;2.60;99.90;;;;;;5093583;28;20283;-63
2021/12/06 10:56:42;;;;;;;116.80;35.63;;;2.60;99.90;;;;;;5092714;28;20180;-63
2021/12/06 10:59:19;;;;;;;48.30;18.03;;;2.60;99.90;;;;;;5074702;28;20259;-69
2021/12/06 11:01:46;;;;;;;44.80;16.43;;;2.60;99.90;;;;;;5093163;28;20176;-64
2021/12/06 11:04:15;;;;;;;42.63;15.93;;;2.50;99.90;;;;;;5093286;28;20181;-58
2021/12/06 11:06:45;;;;;;;44.77;17.23;;;2.50;99.90;;;;;;5092941;28;20283;-60
2021/12/06 11:09:15;;;;;;;80.53;26.23;;;2.60;99.90;;;;;;5092952;28;20184;-58
2021/12/06 11:11:44;;;;;;;47.80;18.10;;;2.70;99.90;;;;;;5093102;28;20189;-60
2021/12/06 11:14:22;;;;;;;50.53;16.57;;;2.60;99.90;;;;;;5092993;28;20759;-55
2021/12/06 11:17:00;;;;;;;41.13;15.40;;;2.40;99.90;;;;;;5075252;28;20183;-58
2021/12/06 11:19:28;;;;;;;44.70;16.60;;;2.40;99.90;;;;;;5093296;28;20187;-58
2021/12/06 11:21:59;;;;;;;49.57;19.80;;;2.40;99.90;;;;;;5093285;28;20177;-61
2021/12/06 11:24:29;;;;;;;41.33;15.60;;;2.40;99.90;;;;;;5092700;28;20227;-59
2021/12/06 11:27:03;;;;;;;41.83;16.10;;;2.40;99.90;;;;;;5073937;28;20234;-59
2021/12/06 11:29:35;;;;;;;39.30;15.37;;;2.30;99.90;;;;;;5092206;28;20179;-59
2021/12/06 11:32:15;;;;;;;43.43;17.30;;;2.20;99.90;;;;;;5092201;28;20650;-62
2021/12/06 11:34:52;;;;;;;40.97;16.07;;;2.30;99.90;;;;;;5091867;28;20179;-63
2021/12/06 11:37:23;;;;;;;68.10;23.83;;;2.30;99.90;;;;;;5092625;28;20211;-57
2021/12/06 11:40:10;;;;;;;49.90;17.40;;;2.40;99.90;;;;;;5074318;28;20188;-54
2021/12/06 11:43:03;;;;;;;116.07;33.83;;;2.60;99.90;;;;;;5090675;28;20192;-59
2021/12/06 11:45:58;;;;;;;51.73;20.43;;;2.80;99.90;;;;;;5091902;28;20180;-56
2021/12/06 11:48:30;;;;;;;42.87;16.73;;;3.00;99.90;;;;;;5092082;28;20217;-57
2021/12/06 11:51:19;;;;;;;38.37;14.30;;;2.80;99.90;;;;;;5091715;28;20235;-56
2021/12/06 11:53:55;;;;;;;50.60;19.03;;;2.90;99.90;;;;;;5091502;28;20180;-56
2021/12/06 11:56:22;;;;;;;47.80;18.17;;;2.90;99.90;;;;;;5072549;28;20176;-56
2021/12/06 11:58:53;;;;;;;52.03;18.33;;;2.80;99.90;;;;;;5090509;28;20217;-58
2021/12/06 12:01:23;;;;;;;44.70;16.60;;;2.90;99.90;;;;;;5091348;28;20497;-52
2021/12/06 12:03:55;;;;;;;49.23;18.57;;;2.70;99.90;;;;;;5091296;28;20172;-55
2021/12/06 12:06:39;;;;;;;51.73;19.10;;;2.60;99.90;;;;;;5091406;28;20527;-56
2021/12/06 12:09:08;;;;;;;53.10;17.63;;;2.70;99.90;;;;;;5091456;28;20179;-57
2021/12/06 12:12:11;;;;;;;58.60;19.67;;;2.60;99.90;;;;;;5091655;28;20207;-57
2021/12/06 12:14:49;;;;;;;49.33;17.43;;;2.60;99.90;;;;;;5070531;28;20244;-55
2021/12/06 12:17:26;;;;;;;51.70;18.20;;;2.60;99.90;;;;;;5071485;28;20664;-57
2021/12/06 12:19:55;;;;;;;57.10;19.17;;;2.60;99.90;;;;;;5071463;28;20239;-55
2021/12/06 12:22:23;;;;;;;55.83;18.53;;;2.50;99.90;;;;;;5071275;28;20219;-57
2021/12/06 12:24:57;;;;;;;59.03;20.30;;;2.50;99.90;;;;;;5071249;28;20582;-56
2021/12/06 12:29:51;;;;;;;59.07;20.23;;;2.40;99.90;;;;;;5071141;28;20674;-56
2021/12/06 12:32:17;;;;;;;53.70;20.30;;;2.40;99.90;;;;;;5071612;28;20207;-68
2021/12/06 12:34:47;;;;;;;61.23;20.30;;;2.20;99.90;;;;;;5036474;28;20177;-57
2021/12/06 12:37:15;;;;;;;63.33;20.77;;;2.20;99.90;;;;;;5071145;28;20205;-57
2021/12/06 12:39:41;;;;;;;57.77;20.10;;;2.20;99.90;;;;;;5070738;28;20212;-55
2021/12/06 12:42:08;;;;;;;74.40;25.30;;;2.30;99.90;;;;;;5071063;28;20219;-55
2021/12/06 12:44:46;;;;;;;88.33;26.97;;;2.30;99.90;;;;;;5071035;28;20637;-60
2021/12/06 12:47:26;;;;;;;62.87;22.57;;;2.30;99.90;;;;;;5071073;28;20170;-57
2021/12/06 12:50:01;;;;;;;101.40;34.80;;;2.40;99.90;;;;;;5049217;28;20640;-59
2021/12/06 12:52:46;;;;;;;99.07;36.73;;;2.60;99.90;;;;;;5048926;28;20600;-55
2021/12/06 12:55:41;;;;;;;99.17;38.67;;;2.60;99.90;;;;;;5049151;28;20280;-56
2021/12/06 12:58:09;;;;;;;61.57;20.50;;;2.50;99.90;;;;;;5047183;28;20253;-58
2021/12/06 13:01:01;;;;;;;64.30;19.93;;;2.60;99.90;;;;;;5061641;28;20201;-52
2021/12/06 13:03:39;;;;;;;66.03;19.00;;;2.40;99.90;;;;;;5068722;28;20551;-58